Flight Track Log - Related Links

Times and Time Zones

All times are in EDT time to prevent confusion due to time zone crossing. See the RPA3253 flight status page for this flight to view local times or setup timezone preferences in your user account.

Time Position Orientation Groundspeed Altitude Reporting Facility
EDT Latitude Longitude Course Direction KTS MPH feet Rate Location/Type
Tue 12:15:31 AM 35.1997 -80.9608 231° Southwest 141 162 1,700  Level Atlanta Center
Tue 12:16:19 AM 35.1736 -81.0000 231° Southwest 168 193 3,100 1,562 Climbing Atlanta Center
Tue 12:16:44 AM 35.1597 -81.0233 234° Southwest 219 252 3,600 2,188 Climbing Atlanta Center
Tue 12:17:44 AM 35.1217 -81.0958 237° Southwest 266 306 6,200 2,800 Climbing Atlanta Center
Tue 12:18:44 AM 35.0819 -81.1733 238° Southwest 271 312 9,200 2,450 Climbing Atlanta Center
Tue 12:19:44 AM 35.0458 -81.2456 239° Southwest 276 318 11,100 2,100 Climbing Atlanta Center
Tue 12:20:44 AM 34.9978 -81.3358 237° Southwest 299 344 13,400 2,350 Climbing Atlanta Center
Tue 12:21:44 AM 34.9517 -81.4236 237° Southwest 313 360 15,800 2,200 Climbing Atlanta Center
Tue 12:22:44 AM 34.9056 -81.5136 238° Southwest 313 360 17,800 1,900 Climbing Atlanta Center
Tue 12:23:44 AM 34.8533 -81.6064 236° Southwest 323 372 19,600 1,800 Climbing Atlanta Center
Tue 12:24:44 AM 34.8031 -81.7014 237° Southwest 334 384 21,400 1,700 Climbing Atlanta Center
Tue 12:25:44 AM 34.7464 -81.8067 237° Southwest 340 391 23,000 1,450 Climbing Atlanta Center
Tue 12:26:44 AM 34.6919 -81.9117 238° Southwest 365 420 24,300 1,350 Climbing Atlanta Center
Tue 12:27:44 AM 34.6414 -81.9989 235° Southwest 365 420 25,700 1,450 Climbing Atlanta Center
Tue 12:28:44 AM 34.5847 -82.1036 237° Southwest 365 420 27,200 1,600 Climbing Atlanta Center
Tue 12:29:44 AM 34.5297 -82.2031 236° Southwest 365 420 28,900 1,100 Climbing Atlanta Center
Tue 12:30:44 AM 34.4750 -82.3078 238° Southwest 365 420 29,400 650 Climbing Atlanta Center
Tue 12:31:44 AM 34.4158 -82.4122 236° Southwest 378 435 30,200 700 Climbing Atlanta Center
Tue 12:32:44 AM 34.3567 -82.5214 237° Southwest 383 441 30,800 850 Climbing Atlanta Center
Tue 12:33:44 AM 34.2953 -82.6281 235° Southwest 383 441 31,900 1,000 Climbing Atlanta Center
Tue 12:34:44 AM 34.2339 -82.7372 236° Southwest 388 447 32,800 800 Climbing Atlanta Center
Tue 12:35:44 AM 34.1725 -82.8411 234° Southwest 382 440 33,500 600 Climbing Atlanta Center
Tue 12:36:44 AM 34.1150 -82.9472 237° Southwest 382 440 34,000 250 Climbing Atlanta Center
Tue 12:37:44 AM 34.0533 -83.0583 236° Southwest 394 453 34,000  Level Atlanta Center
Tue 12:38:44 AM 33.9875 -83.1794 237° Southwest 394 453 34,000  Level Atlanta Center
Tue 12:39:44 AM 33.9275 -83.2878 236° Southwest 399 459 34,000  Level Atlanta Center
Tue 12:40:44 AM 33.8636 -83.3983 235° Southwest 404 465 34,000  Level Atlanta Center
Tue 12:41:44 AM 33.8014 -83.5114 237° Southwest 404 465 34,000  Level Atlanta Center
Tue 12:42:44 AM 33.7372 -83.6217 235° Southwest 409 471 34,000  Level Atlanta Center
Tue 12:43:44 AM 33.6750 -83.7342 236° Southwest 409 471 34,000  Level Atlanta Center
Tue 12:44:44 AM 33.6106 -83.8467 235° Southwest 409 471 34,000  Level Atlanta Center
Tue 12:45:44 AM 33.5458 -83.9617 236° Southwest 416 479 34,000  Level Atlanta Center
Tue 12:46:44 AM 33.4875 -84.0611 235° Southwest 416 479 34,000  Level Atlanta Center
Tue 12:47:44 AM 33.4228 -84.1756 236° Southwest 416 479 34,000  Level Atlanta Center
Tue 12:48:44 AM 33.3578 -84.2875 235° Southwest 421 484 34,000  Level Atlanta Center
Tue 12:49:44 AM 33.2969 -84.4017 238° Southwest 416 479 34,000  Level Atlanta Center
Tue 12:50:44 AM 33.2317 -84.5306 239° Southwest 416 479 34,000  Level Atlanta Center
Tue 12:51:44 AM 33.1708 -84.6494 239° Southwest 416 479 34,000  Level Atlanta Center
Tue 12:52:44 AM 33.1094 -84.7631 237° Southwest 411 473 34,000  Level Atlanta Center
Tue 12:53:44 AM 33.0483 -84.8814 238° Southwest 411 473 34,000  Level Atlanta Center
Tue 12:54:44 AM 32.9869 -84.9922 237° Southwest 411 473 34,000  Level Atlanta Center
Tue 12:55:44 AM 32.9297 -85.1081 240° Southwest 411 473 34,000  Level Atlanta Center
Tue 12:56:44 AM 32.8744 -85.2014 235° Southwest 405 466 34,000  Level Atlanta Center
Tue 12:57:44 AM 32.8128 -85.3167 238° Southwest 405 466 34,000  Level Atlanta Center
Tue 12:58:44 AM 32.7533 -85.4294 238° Southwest 405 466 34,000  Level Atlanta Center
Tue 12:59:44 AM 32.6933 -85.5419 238° Southwest 411 473 34,000  Level Atlanta Center
Tue 01:00:44 AM 32.6336 -85.6519 237° Southwest 411 473 34,000  Level Atlanta Center
Tue 01:01:44 AM 32.5736 -85.7617 237° Southwest 411 473 34,000  Level Atlanta Center
Tue 01:02:44 AM 32.5072 -85.8886 238° Southwest 415 478 34,000  Level Atlanta Center
Tue 01:03:44 AM 32.4450 -85.9981 236° Southwest 420 483 34,000  Level Atlanta Center
Tue 01:04:44 AM 32.3867 -86.1075 238° Southwest 408 470 34,000  Level Atlanta Center
Tue 01:05:44 AM 32.3286 -86.2142 237° Southwest 403 464 34,000  Level Atlanta Center
Tue 01:06:44 AM 32.2661 -86.3208 235° Southwest 403 464 34,000  Level Atlanta Center
Tue 01:07:44 AM 32.2206 -86.4203 242° Southwest 397 457 34,000  Level Atlanta Center
Tue 01:08:44 AM 32.1619 -86.5267 237° Southwest 392 451 34,000  Level Atlanta Center
Tue 01:09:44 AM 32.1033 -86.6331 237° Southwest 392 451 34,000  Level Atlanta Center
Tue 01:10:44 AM 32.0342 -86.7461 234° Southwest 387 445 34,000  Level Atlanta Center
Tue 01:11:44 AM 31.9775 -86.8522 238° Southwest 387 445 34,000  Level Atlanta Center
Tue 01:12:44 AM 31.9167 -86.9578 236° Southwest 387 445 34,000  Level Atlanta Center
Tue 01:14:29 AM 31.8219 -87.1261 237° Southwest 383 441 34,000  Level Houston Center
Tue 01:15:29 AM 31.7636 -87.2314 237° Southwest 384 442 34,000 -400 Level Houston Center
Tue 01:16:29 AM 31.7042 -87.3367 236° Southwest 387 445 33,200 -1,140 Descending Houston Center
Tue 01:17:30 AM 31.6439 -87.4422 236° Southwest 390 449 31,700 -1,091 Descending Houston Center
Tue 01:18:30 AM 31.5831 -87.5500 236° Southwest 397 457 31,000 -350 Descending Houston Center
Tue 01:19:30 AM 31.5231 -87.6569 237° Southwest 393 452 31,000  Level Houston Center
Tue 01:20:30 AM 31.4622 -87.7642 236° Southwest 396 456 31,000  Level Houston Center
Tue 01:21:31 AM 31.4019 -87.8706 236° Southwest 396 456 31,000  Level Houston Center
Tue 01:22:31 AM 31.3414 -87.9769 236° Southwest 396 456 31,000  Level Houston Center
Tue 01:23:31 AM 31.2806 -88.0831 236° Southwest 396 456 31,000  Level Houston Center
Tue 01:24:32 AM 31.2142 -88.1997 236° Southwest 400 460 31,000  Level Houston Center
Tue 01:25:32 AM 31.1550 -88.3083 238° Southwest 398 458 31,000  Level Houston Center
Tue 01:26:32 AM 31.0900 -88.4131 234° Southwest 400 460 31,000  Level Houston Center
Tue 01:27:32 AM 31.0275 -88.5181 235° Southwest 394 453 31,000  Level Houston Center
Tue 01:28:33 AM 30.9622 -88.6300 236° Southwest 394 453 31,000  Level Houston Center
Tue 01:29:33 AM 30.9003 -88.7344 235° Southwest 393 452 31,000  Level Houston Center
Tue 01:30:33 AM 30.8383 -88.8392 235° Southwest 393 452 31,000 -200 Level Houston Center
Tue 01:31:33 AM 30.7803 -88.9397 236° Southwest 395 455 30,600 -1,488 Descending Houston Center
Tue 01:32:34 AM 30.7183 -89.0447 236° Southwest 394 453 28,000 -2,579 Descending Houston Center
Tue 01:33:34 AM 30.6586 -89.1467 236° Southwest 384 442 25,400 -2,650 Descending Houston Center
Tue 01:34:34 AM 30.5975 -89.2500 236° Southwest 387 445 22,700 -2,650 Descending Houston Center
Tue 01:35:34 AM 30.5369 -89.3517 235° Southwest 383 441 20,100 -2,870 Descending Houston Center
Tue 01:36:06 AM 30.4978 -89.4197 236° Southwest 386 444 18,300 -2,852 Descending Houston Center
Tue 01:36:35 AM 30.4764 -89.4542 234° Southwest 385 443 17,200 -2,562 Descending Houston Center
Tue 01:37:35 AM 30.4181 -89.5525 235° Southwest 372 428 14,500 -2,600 Descending Houston Center
Tue 01:38:35 AM 30.3661 -89.6419 236° Southwest 338 389 12,000 -2,720 Descending Houston Center
Tue 01:38:50 AM 30.3503 -89.6797 244° Southwest 318 366 11,100 -1,900 Descending Houston Center
Tue 01:39:35 AM 30.3331 -89.7314 249° West 298 343 10,100 -1,869 Descending Houston Center
Tue 01:39:51 AM 30.3242 -89.7678 254° West 276 318 9,200 -2,600 Descending Houston Center
Tue 01:40:35 AM 30.3053 -89.8250 249° West 289 333 7,500 -2,300 Descending Houston Center
Tue 01:40:51 AM 30.2978 -89.8533 253° West 278 320 6,900 -2,066 Descending Houston Center
Tue 01:41:36 AM 30.2808 -89.9097 251° West 280 322 5,400 -1,967 Descending Houston Center
Tue 01:41:52 AM 30.2733 -89.9361 252° West 277 319 4,900 -1,400 Descending Houston Center
Tue 01:42:36 AM 30.2567 -89.9906 250° West 270 311 4,000 -900 Descending Houston Center
Tue 01:42:52 AM 30.2486 -90.0142 248° West 253 291 4,000  Level Houston Center
Tue 01:43:36 AM 30.2347 -90.0639 252° West 250 288 4,000  Level Houston Center
Tue 01:43:53 AM 30.2261 -90.0922 251° West 236 272 4,000 -200 Level Houston Center
Tue 01:44:36 AM 30.2086 -90.1347 245° Southwest 244 281 3,800 -590 Descending Houston Center
Tue 01:44:54 AM 30.1881 -90.1517 215° Southwest 242 278 3,400 -984 Descending Houston Center
Tue 01:45:37 AM 30.1614 -90.1806 223° Southwest 229 264 2,800 -1,000 Descending Houston Center
Tue 01:45:54 AM 30.1436 -90.1967 218° Southwest 206 237 2,400 -800 Descending Houston Center
Tue 01:46:37 AM 30.1178 -90.2094 203° Southwest 199 229 2,000 -393 Descending Houston Center
Tue 01:46:55 AM 30.0981 -90.2153 194° South 155 178 2,000 -500 Level Houston Center
Tue 01:47:37 AM 30.0733 -90.2244 198° South 177 204 1,500 -900 Descending Houston Center
Tue 01:47:55 AM 30.0569 -90.2292 194° South 162 186 1,100 -900 Descending Houston Center
Tue 01:48:37 AM 30.0364 -90.2358 196° South 158 182 600 -716 Descending Houston Center
Tue 01:49:02 AM 30.0175 -90.2425 197° South 125 144 300 -300 Descending Houston Center
Tue 01:49:37 AM 30.0033 -90.2464 193° South 149 171 300  Level Houston Center
Tue 01:51:00 AM 29.9833 -90.2500 205° Southwest  Level FlightAware Approximate
Tue 01:58:00 AM 29.9934 -90.2580 205° Southwest  Level Estimated
Tue 01:59:00 AM 29.9934 -90.2580 205° Southwest  Level Estimated

Login

Don't have an account? Register now (free) for customized features, flight alerts, and more!